createdAt,value
2018-06-06T00:01:10.152Z,88.90
2018-06-06T00:03:38.337Z,89.20
2018-06-06T00:06:06.553Z,89.40
2018-06-06T00:08:34.735Z,89.60
2018-06-06T00:11:02.948Z,89.70
2018-06-06T00:13:31.128Z,89.80
2018-06-06T00:15:59.319Z,89.80
2018-06-06T00:18:27.515Z,90.00
2018-06-06T00:20:55.704Z,90.00
2018-06-06T00:23:23.925Z,90.10
2018-06-06T00:25:52.124Z,90.10
2018-06-06T00:28:20.315Z,90.10
2018-06-06T00:30:48.507Z,90.20
2018-06-06T00:33:16.761Z,90.30
2018-06-06T00:35:45.030Z,90.40
2018-06-06T00:38:13.276Z,90.50
2018-06-06T00:40:41.546Z,90.60
2018-06-06T00:43:09.750Z,90.80
2018-06-06T00:45:37.944Z,90.90
2018-06-06T00:48:06.139Z,91.00
2018-06-06T00:50:34.334Z,91.20
2018-06-06T00:53:02.539Z,91.30
2018-06-06T00:55:34.326Z,91.30
2018-06-06T01:00:30.592Z,91.60
2018-06-06T01:02:58.780Z,91.70
2018-06-06T01:05:26.996Z,91.80
2018-06-06T01:07:55.171Z,91.70
2018-06-06T01:10:23.363Z,91.90
2018-06-06T01:12:51.617Z,92.00
2018-06-06T01:15:19.909Z,92.00
2018-06-06T01:17:48.123Z,92.10
2018-06-06T01:20:16.318Z,92.20
2018-06-06T01:22:44.526Z,92.30
2018-06-06T01:25:12.700Z,92.40
2018-06-06T01:27:40.902Z,92.50
2018-06-06T01:30:09.094Z,92.60
2018-06-06T01:32:37.351Z,92.70
2018-06-06T01:35:05.617Z,92.70
2018-06-06T01:40:01.876Z,93.00
2018-06-06T01:42:30.134Z,93.10
2018-06-06T01:44:58.327Z,93.10
2018-06-06T01:49:54.500Z,93.20
2018-06-06T01:52:22.684Z,93.30
2018-06-06T01:54:50.871Z,93.30
2018-06-06T01:57:19.071Z,93.30
2018-06-06T01:59:47.260Z,93.40
2018-06-06T02:02:15.511Z,93.40
2018-06-06T02:04:43.675Z,93.40
2018-06-06T02:07:11.872Z,93.50
2018-06-06T02:09:40.068Z,93.40
2018-06-06T02:12:08.533Z,93.40
2018-06-06T02:14:36.683Z,93.90
2018-06-06T02:17:05.016Z,93.50
2018-06-06T02:19:33.280Z,93.60
2018-06-06T02:22:01.472Z,93.70
2018-06-06T02:24:29.672Z,93.70
2018-06-06T02:26:57.866Z,93.70
2018-06-06T02:29:26.042Z,93.70
2018-06-06T02:31:54.310Z,93.70
2018-06-06T02:34:22.654Z,93.70
2018-06-06T02:36:50.836Z,93.60
2018-06-06T02:39:19.018Z,93.60
2018-06-06T02:41:47.272Z,93.70
2018-06-06T02:44:15.502Z,93.60
2018-06-06T02:46:43.674Z,93.70
2018-06-06T02:49:11.889Z,93.70
2018-06-06T02:51:41.187Z,93.60
2018-06-06T02:54:09.393Z,93.60
2018-06-06T02:56:37.661Z,93.60
2018-06-06T03:01:33.954Z,93.60
2018-06-06T03:04:02.148Z,93.60
2018-06-06T03:06:30.398Z,93.70
2018-06-06T03:08:58.651Z,93.70
2018-06-06T03:11:27.041Z,93.70
2018-06-06T03:13:55.313Z,93.70
2018-06-06T03:16:23.534Z,93.80
2018-06-06T03:18:51.768Z,93.80
2018-06-06T03:21:19.969Z,93.80
2018-06-06T03:25:17.366Z,94.20
2018-06-06T03:27:45.568Z,93.90
2018-06-06T03:30:13.814Z,93.90
2018-06-06T03:32:42.078Z,93.90
2018-06-06T03:37:38.800Z,94.00
2018-06-06T03:40:06.987Z,94.30
2018-06-06T03:42:35.195Z,94.00
2018-06-06T03:45:04.244Z,94.00
2018-06-06T03:47:32.423Z,94.00
2018-06-06T03:50:00.639Z,93.90
2018-06-06T03:52:28.876Z,93.90
2018-06-06T03:54:57.253Z,93.90
2018-06-06T03:57:25.460Z,93.70
2018-06-06T03:59:53.721Z,93.70
2018-06-06T04:02:21.954Z,93.70
2018-06-06T04:04:50.224Z,93.60
2018-06-06T04:07:18.461Z,93.60
2018-06-06T04:09:46.714Z,93.60
2018-06-06T04:12:14.911Z,93.50
2018-06-06T04:14:43.107Z,93.50
2018-06-06T04:17:11.273Z,93.40
2018-06-06T04:19:39.459Z,93.40
2018-06-06T04:22:07.652Z,93.40
2018-06-06T04:24:35.845Z,93.40
2018-06-06T04:27:04.031Z,93.30
2018-06-06T04:29:32.211Z,93.20
2018-06-06T04:32:00.459Z,93.20
2018-06-06T04:34:28.655Z,93.20
2018-06-06T04:36:56.899Z,93.20
2018-06-06T04:39:25.123Z,93.10
2018-06-06T04:41:53.359Z,93.10
2018-06-06T04:44:21.532Z,93.00
2018-06-06T04:46:49.735Z,92.90
2018-06-06T04:49:17.963Z,92.80
2018-06-06T04:51:46.159Z,92.80
2018-06-06T04:54:14.344Z,92.80
2018-06-06T04:56:42.540Z,92.80
2018-06-06T04:59:10.809Z,92.60
2018-06-06T05:01:39.052Z,92.40
2018-06-06T05:04:07.247Z,92.10
2018-06-06T05:09:04.699Z,92.10
2018-06-06T05:11:32.905Z,92.00
2018-06-06T05:16:29.212Z,92.00
2018-06-06T05:18:57.476Z,92.30
2018-06-06T05:21:25.910Z,91.90
2018-06-06T05:23:54.089Z,91.80
2018-06-06T05:26:22.287Z,91.50
2018-06-06T05:28:50.452Z,91.40
2018-06-06T05:31:18.668Z,91.30
2018-06-06T05:33:46.888Z,91.20
2018-06-06T05:36:15.071Z,91.00
2018-06-06T05:38:43.266Z,90.80
2018-06-06T05:41:11.546Z,90.70
2018-06-06T05:46:07.714Z,90.60
2018-06-06T05:48:35.911Z,90.80
2018-06-06T05:51:04.232Z,90.40
2018-06-06T05:53:32.493Z,90.80
2018-06-06T05:56:00.675Z,90.30
2018-06-06T05:58:28.927Z,90.20
2018-06-06T06:00:57.127Z,90.10
2018-06-06T06:03:25.365Z,90.00
2018-06-06T06:05:53.571Z,89.70
2018-06-06T06:08:21.788Z,90.10
2018-06-06T06:10:49.952Z,89.20
2018-06-06T06:13:18.159Z,88.90
2018-06-06T06:15:46.354Z,88.70
2018-06-06T06:18:14.550Z,88.20
2018-06-06T06:20:42.764Z,88.10
2018-06-06T06:23:10.978Z,88.10
2018-06-06T06:25:39.166Z,87.80
2018-06-06T06:28:07.488Z,87.20
2018-06-06T06:30:35.683Z,86.90
2018-06-06T06:33:03.875Z,86.90
2018-06-06T06:35:32.143Z,86.70
2018-06-06T06:38:00.393Z,86.70
2018-06-06T06:40:28.584Z,86.40
2018-06-06T06:42:56.801Z,86.40
2018-06-06T06:45:25.053Z,86.50
2018-06-06T06:47:53.267Z,86.20
2018-06-06T06:50:21.483Z,85.80
2018-06-06T06:52:49.728Z,85.30
2018-06-06T06:55:17.987Z,84.90
2018-06-06T06:57:46.245Z,84.10
2018-06-06T07:00:14.449Z,84.10
2018-06-06T07:02:42.683Z,84.10
2018-06-06T07:07:38.955Z,83.90
2018-06-06T07:10:07.193Z,84.00
2018-06-06T07:12:35.380Z,83.70
2018-06-06T07:15:03.600Z,83.70
2018-06-06T07:17:31.838Z,82.90
2018-06-06T07:20:00.044Z,82.40
2018-06-06T07:22:28.275Z,82.00
2018-06-06T07:24:56.471Z,81.40
2018-06-06T07:27:24.663Z,81.20
2018-06-06T07:29:52.896Z,80.70
2018-06-06T07:32:21.091Z,80.50
2018-06-06T07:34:49.287Z,80.30
2018-06-06T07:39:45.590Z,79.70
2018-06-06T07:42:13.830Z,80.10
2018-06-06T07:44:42.036Z,79.30
2018-06-06T07:47:10.214Z,78.90
2018-06-06T07:52:06.411Z,78.50
2018-06-06T07:54:34.600Z,78.90
2018-06-06T07:57:02.808Z,79.50
2018-06-06T07:59:31.060Z,78.80
2018-06-06T08:01:59.318Z,79.20
2018-06-06T08:04:27.499Z,79.00
2018-06-06T08:06:55.703Z,78.60
2018-06-06T08:09:23.901Z,78.10
2018-06-06T08:11:52.356Z,77.80
2018-06-06T08:14:20.559Z,77.90
2018-06-06T08:16:48.763Z,77.60
2018-06-06T08:21:44.990Z,77.20
2018-06-06T08:24:13.183Z,76.70
2018-06-06T08:26:41.380Z,76.50
2018-06-06T08:29:09.590Z,76.00
2018-06-06T08:31:37.834Z,75.80
2018-06-06T08:34:06.261Z,76.30
2018-06-06T08:36:34.438Z,75.70
2018-06-06T08:39:02.634Z,76.00
2018-06-06T08:41:31.097Z,76.00
2018-06-06T08:43:59.260Z,75.60
2018-06-06T08:46:27.450Z,75.40
2018-06-06T08:48:55.635Z,74.90
2018-06-06T08:51:23.898Z,75.40
2018-06-06T08:53:52.139Z,74.80
2018-06-06T08:56:20.334Z,73.70
2018-06-06T08:58:48.519Z,73.60
2018-06-06T09:01:16.893Z,73.50
2018-06-06T09:03:45.115Z,73.20
2018-06-06T09:06:13.302Z,72.90
2018-06-06T09:08:41.517Z,71.70
2018-06-06T09:11:09.690Z,71.50
2018-06-06T09:13:37.901Z,71.10
2018-06-06T09:16:06.121Z,71.30
2018-06-06T09:18:34.294Z,71.30
2018-06-06T09:21:02.504Z,69.70
2018-06-06T09:25:58.674Z,69.60
2018-06-06T09:28:26.918Z,68.00
2018-06-06T09:30:55.119Z,68.60
2018-06-06T09:33:23.389Z,68.00
2018-06-06T09:35:51.567Z,66.20
2018-06-06T09:38:19.760Z,67.50
2018-06-06T09:40:47.967Z,66.90
2018-06-06T09:43:16.159Z,66.40
2018-06-06T09:45:44.380Z,65.80
2018-06-06T09:48:12.579Z,66.10
2018-06-06T09:50:40.834Z,64.60
2018-06-06T09:53:09.690Z,64.70
2018-06-06T09:55:37.876Z,64.30
2018-06-06T09:58:06.133Z,64.00
2018-06-06T10:00:39.776Z,63.70
2018-06-06T10:03:07.955Z,63.40
2018-06-06T10:05:36.214Z,63.60
2018-06-06T10:08:04.477Z,61.20
2018-06-06T10:10:32.631Z,60.40
2018-06-06T10:13:00.867Z,59.60
2018-06-06T10:15:29.054Z,58.10
2018-06-06T10:17:57.239Z,59.00
2018-06-06T10:20:26.018Z,58.20
2018-06-06T10:22:54.313Z,56.50
2018-06-06T10:25:22.895Z,55.10
2018-06-06T10:27:51.087Z,53.80
2018-06-06T10:30:19.279Z,53.40
2018-06-06T10:32:47.532Z,52.10
2018-06-06T10:35:15.723Z,50.80
2018-06-06T10:37:43.991Z,49.90
2018-06-06T10:40:12.196Z,48.20
2018-06-06T10:42:40.384Z,47.20
2018-06-06T10:45:08.587Z,46.50
2018-06-06T10:47:36.787Z,46.10
2018-06-06T10:52:33.009Z,43.60
2018-06-06T10:55:01.197Z,43.60
2018-06-06T10:57:29.375Z,43.20
2018-06-06T10:59:57.621Z,43.80
2018-06-06T11:02:25.991Z,44.60
2018-06-06T11:04:54.179Z,43.90
2018-06-06T11:07:22.358Z,42.10
2018-06-06T11:09:50.549Z,41.40
2018-06-06T11:12:18.762Z,43.10
2018-06-06T11:14:46.955Z,42.90
2018-06-06T11:17:15.139Z,42.30
2018-06-06T11:19:43.336Z,42.10
2018-06-06T11:22:11.603Z,41.10
2018-06-06T11:24:39.807Z,39.70
2018-06-06T11:27:07.976Z,40.00
2018-06-06T11:29:36.183Z,39.60
2018-06-06T11:32:04.396Z,38.90
2018-06-06T11:34:32.632Z,38.40
2018-06-06T11:37:00.810Z,37.90
2018-06-06T11:39:29.062Z,37.50
2018-06-06T11:41:57.254Z,37.90
2018-06-06T11:44:25.440Z,37.70
2018-06-06T11:46:53.646Z,37.70
2018-06-06T11:49:21.916Z,37.20
2018-06-06T11:51:50.150Z,36.40
2018-06-06T11:54:18.367Z,35.90
2018-06-06T11:56:46.551Z,37.00
2018-06-06T11:59:14.755Z,36.50
2018-06-06T12:01:43.042Z,36.30
2018-06-06T12:04:11.191Z,35.60
2018-06-06T12:06:39.442Z,35.30
2018-06-06T12:09:09.550Z,34.80
2018-06-06T12:11:37.840Z,35.10
2018-06-06T12:14:06.044Z,36.10
2018-06-06T12:16:34.223Z,35.00
2018-06-06T12:19:02.420Z,35.00
2018-06-06T12:21:30.721Z,33.20
2018-06-06T12:23:58.965Z,32.50
2018-06-06T12:26:27.150Z,32.30
2018-06-06T12:28:55.349Z,32.70
2018-06-06T12:31:23.620Z,32.60
2018-06-06T12:33:51.855Z,34.10
2018-06-06T12:36:20.027Z,34.30
2018-06-06T12:38:48.216Z,33.60
2018-06-06T12:41:16.722Z,32.70
2018-06-06T12:43:44.920Z,33.20
2018-06-06T12:46:13.112Z,33.10
2018-06-06T12:48:41.311Z,32.60
2018-06-06T12:51:09.522Z,30.90
2018-06-06T12:53:37.695Z,31.00
2018-06-06T12:56:05.904Z,30.00
2018-06-06T12:58:34.093Z,30.00
2018-06-06T13:01:02.273Z,30.50
2018-06-06T13:03:30.512Z,32.00
2018-06-06T13:05:58.703Z,32.30
2018-06-06T13:08:26.916Z,30.80
2018-06-06T13:10:55.100Z,29.60
2018-06-06T13:13:23.293Z,29.70
2018-06-06T13:15:51.504Z,30.20
2018-06-06T13:18:19.688Z,29.60
2018-06-06T13:20:48.071Z,30.00
2018-06-06T13:23:16.579Z,30.00
2018-06-06T13:25:44.760Z,29.90
2018-06-06T13:28:13.009Z,30.20
2018-06-06T13:30:41.191Z,30.00
2018-06-06T13:33:09.375Z,29.50
2018-06-06T13:35:37.543Z,29.50
2018-06-06T13:38:05.795Z,29.20
2018-06-06T13:40:34.081Z,28.70
2018-06-06T13:43:02.264Z,28.00
2018-06-06T13:45:30.469Z,28.40
2018-06-06T13:47:58.722Z,28.80
2018-06-06T13:50:26.952Z,28.40
2018-06-06T13:52:55.144Z,29.20
2018-06-06T13:55:23.359Z,29.50
2018-06-06T13:57:51.613Z,29.30
2018-06-06T14:00:19.849Z,29.80
2018-06-06T14:02:48.109Z,29.80
2018-06-06T14:05:16.320Z,29.90
2018-06-06T14:07:44.538Z,30.40
2018-06-06T14:10:12.799Z,30.80
2018-06-06T14:12:41.046Z,30.80
2018-06-06T14:15:09.650Z,30.30
2018-06-06T14:17:37.840Z,31.50
2018-06-06T14:20:06.051Z,32.40
2018-06-06T14:22:34.294Z,32.30
2018-06-06T14:25:02.491Z,31.60
2018-06-06T14:27:30.812Z,31.10
2018-06-06T14:29:59.099Z,32.40
2018-06-06T14:32:27.473Z,32.40
2018-06-06T14:34:55.726Z,32.20
2018-06-06T14:37:23.935Z,33.50
2018-06-06T14:39:52.116Z,33.60
2018-06-06T14:42:20.308Z,33.70
2018-06-06T14:47:16.522Z,34.00
2018-06-06T14:49:44.699Z,33.80
2018-06-06T14:52:13.011Z,33.80
2018-06-06T14:54:41.171Z,34.30
2018-06-06T14:57:09.371Z,34.60
2018-06-06T14:59:37.595Z,34.50
2018-06-06T15:02:05.924Z,34.60
2018-06-06T15:04:34.961Z,34.90
2018-06-06T15:07:03.264Z,34.80
2018-06-06T15:09:34.458Z,36.00
2018-06-06T15:12:05.022Z,35.60
2018-06-06T15:14:35.375Z,36.20
2018-06-06T15:17:04.981Z,36.50
2018-06-06T15:19:35.600Z,37.00
2018-06-06T15:22:04.308Z,36.70
2018-06-06T15:24:32.515Z,36.40
2018-06-06T15:27:01.509Z,36.20
2018-06-06T15:29:29.767Z,36.10
2018-06-06T15:31:57.949Z,36.40
2018-06-06T15:34:26.139Z,36.10
2018-06-06T15:36:54.340Z,35.70
2018-06-06T15:39:22.557Z,36.70
2018-06-06T15:41:50.776Z,36.40
2018-06-06T15:44:18.996Z,35.40
2018-06-06T15:46:47.184Z,35.80
2018-06-06T15:49:15.373Z,35.90
2018-06-06T15:51:43.620Z,36.00
2018-06-06T15:54:11.868Z,36.20
2018-06-06T15:56:40.045Z,36.50
2018-06-06T15:59:08.232Z,36.50
2018-06-06T16:01:36.581Z,36.60
2018-06-06T16:04:04.809Z,36.50
2018-06-06T16:06:32.995Z,36.00
2018-06-06T16:09:01.193Z,37.90
2018-06-06T16:11:29.493Z,37.20
2018-06-06T16:16:25.683Z,37.00
2018-06-06T16:18:54.169Z,37.20
2018-06-06T16:21:22.408Z,36.80
2018-06-06T16:23:50.598Z,36.40
2018-06-06T16:26:18.806Z,36.30
2018-06-06T16:28:47.012Z,37.80
2018-06-06T16:31:15.334Z,39.00
2018-06-06T16:36:11.515Z,39.70
2018-06-06T16:38:39.992Z,40.80
2018-06-06T16:41:08.192Z,41.30
2018-06-06T16:43:36.471Z,41.50
2018-06-06T16:46:04.651Z,42.60
2018-06-06T16:48:32.830Z,43.70
2018-06-06T16:51:01.058Z,45.10
2018-06-06T16:53:29.277Z,46.10
2018-06-06T16:55:57.499Z,46.80
2018-06-06T16:58:27.614Z,47.40
2018-06-06T17:00:55.851Z,48.10
2018-06-06T17:03:24.130Z,47.40
2018-06-06T17:05:52.315Z,47.90
2018-06-06T17:08:20.527Z,49.40
2018-06-06T17:10:48.731Z,49.00
2018-06-06T17:13:16.936Z,48.40
2018-06-06T17:18:13.594Z,47.80
2018-06-06T17:20:41.856Z,48.30
2018-06-06T17:23:10.055Z,48.40
2018-06-06T17:25:38.297Z,47.50
2018-06-06T17:28:06.767Z,47.90
2018-06-06T17:30:35.088Z,48.30
2018-06-06T17:33:03.287Z,48.70
2018-06-06T17:37:59.501Z,49.90
2018-06-06T17:40:27.797Z,50.60
2018-06-06T17:42:56.057Z,51.30
2018-06-06T17:45:24.256Z,51.60
2018-06-06T17:47:52.500Z,52.20
2018-06-06T17:50:20.688Z,52.60
2018-06-06T17:52:48.996Z,52.90
2018-06-06T17:55:17.195Z,53.40
2018-06-06T17:57:45.486Z,53.80
2018-06-06T18:00:13.668Z,54.30
2018-06-06T18:02:41.902Z,54.80
2018-06-06T18:05:10.281Z,54.80
2018-06-06T18:07:38.479Z,55.40
2018-06-06T18:10:06.671Z,55.70
2018-06-06T18:15:02.819Z,56.80
2018-06-06T18:17:31.076Z,57.50
2018-06-06T18:19:59.250Z,58.00
2018-06-06T18:22:27.492Z,58.30
2018-06-06T18:24:55.699Z,58.80
2018-06-06T18:27:23.872Z,59.20
2018-06-06T18:29:52.076Z,60.10
2018-06-06T18:32:20.548Z,60.20
2018-06-06T18:34:48.751Z,60.10
2018-06-06T18:37:16.948Z,59.60
2018-06-06T18:39:45.151Z,60.70
2018-06-06T18:42:13.415Z,61.00
2018-06-06T18:44:41.636Z,61.10
2018-06-06T18:47:09.891Z,61.10
2018-06-06T18:49:38.052Z,61.10
2018-06-06T18:52:06.329Z,61.50
2018-06-06T18:54:34.542Z,61.70
2018-06-06T18:57:02.739Z,61.90
2018-06-06T18:59:30.951Z,62.00
2018-06-06T19:01:59.215Z,61.80
2018-06-06T19:04:27.407Z,61.80
2018-06-06T19:06:55.643Z,62.00
2018-06-06T19:09:23.839Z,63.30
2018-06-06T19:11:52.043Z,62.80
2018-06-06T19:14:20.296Z,63.00
2018-06-06T19:16:48.492Z,63.20
2018-06-06T19:19:16.715Z,63.00
2018-06-06T19:21:44.911Z,63.10
2018-06-06T19:24:13.106Z,63.30
2018-06-06T19:26:41.341Z,63.40
2018-06-06T19:29:09.533Z,63.60
2018-06-06T19:31:37.808Z,64.10
2018-06-06T19:34:06.032Z,64.40
2018-06-06T19:36:34.241Z,65.10
2018-06-06T19:39:02.540Z,65.70
2018-06-06T19:41:30.999Z,66.00
2018-06-06T19:44:00.111Z,66.20
2018-06-06T19:46:28.310Z,66.60
2018-06-06T19:48:56.507Z,66.70
2018-06-06T19:53:52.715Z,67.00
2018-06-06T19:56:21.125Z,65.30
2018-06-06T19:58:49.327Z,63.90
2018-06-06T20:01:17.592Z,63.50
2018-06-06T20:03:45.795Z,63.20
2018-06-06T20:06:13.995Z,62.80
2018-06-06T20:08:42.200Z,62.70
2018-06-06T20:11:10.412Z,63.70
2018-06-06T20:13:38.629Z,64.10
2018-06-06T20:16:06.808Z,65.40
2018-06-06T20:18:35.000Z,65.30
2018-06-06T20:21:03.232Z,66.10
2018-06-06T20:23:31.423Z,66.70
2018-06-06T20:25:59.631Z,67.20
2018-06-06T20:28:27.859Z,67.80
2018-06-06T20:30:56.044Z,68.40
2018-06-06T20:33:24.255Z,69.10
2018-06-06T20:35:52.430Z,70.60
2018-06-06T20:38:20.643Z,70.40
2018-06-06T20:40:48.871Z,70.30
2018-06-06T20:43:17.085Z,70.20
2018-06-06T20:45:45.303Z,69.80
2018-06-06T20:48:13.510Z,69.30
2018-06-06T20:50:41.712Z,68.90
2018-06-06T20:53:09.906Z,69.10
2018-06-06T20:55:38.106Z,68.90
2018-06-06T20:58:06.322Z,67.80
2018-06-06T21:03:02.521Z,68.10
2018-06-06T21:05:30.715Z,67.60
2018-06-06T21:07:58.957Z,67.70
2018-06-06T21:10:27.242Z,68.50
2018-06-06T21:12:55.415Z,69.70
2018-06-06T21:15:23.783Z,69.40
2018-06-06T21:17:51.958Z,69.70
2018-06-06T21:20:20.164Z,69.70
2018-06-06T21:22:48.409Z,69.90
2018-06-06T21:25:16.638Z,69.90
2018-06-06T21:27:44.816Z,69.40
2018-06-06T21:30:13.020Z,69.10
2018-06-06T21:32:41.241Z,69.30
2018-06-06T21:35:09.440Z,69.60
2018-06-06T21:37:37.610Z,70.00
2018-06-06T21:40:05.838Z,70.30
2018-06-06T21:42:34.080Z,70.70
2018-06-06T21:45:02.335Z,71.20
2018-06-06T21:47:30.661Z,71.20
2018-06-06T21:49:58.887Z,71.50
2018-06-06T21:52:27.098Z,71.60
2018-06-06T21:54:55.292Z,71.70
2018-06-06T21:57:23.491Z,71.90
2018-06-06T21:59:51.695Z,72.10
2018-06-06T22:02:19.887Z,72.30
2018-06-06T22:04:48.090Z,72.50
2018-06-06T22:07:16.305Z,72.60
2018-06-06T22:09:44.508Z,72.40
2018-06-06T22:12:12.754Z,72.40
2018-06-06T22:14:40.939Z,72.90
2018-06-06T22:17:09.136Z,73.50
2018-06-06T22:19:37.323Z,73.80
2018-06-06T22:22:05.550Z,73.70
2018-06-06T22:24:33.720Z,73.90
2018-06-06T22:29:30.019Z,72.00
2018-06-06T22:31:58.219Z,71.20
2018-06-06T22:34:26.434Z,70.40
2018-06-06T22:39:22.707Z,69.70
2018-06-06T22:41:50.985Z,69.70
2018-06-06T22:44:19.280Z,69.70
2018-06-06T22:46:47.490Z,69.80
2018-06-06T22:49:15.965Z,70.30
2018-06-06T22:51:44.240Z,70.60
2018-06-06T22:54:12.705Z,70.90
2018-06-06T22:56:40.899Z,71.20
2018-06-06T22:59:09.099Z,71.50
2018-06-06T23:01:37.353Z,71.90
2018-06-06T23:04:05.525Z,72.40
2018-06-06T23:06:33.719Z,72.90
2018-06-06T23:09:01.902Z,73.30
2018-06-06T23:11:30.503Z,73.60
2018-06-06T23:13:58.736Z,74.90
2018-06-06T23:16:26.913Z,74.60
2018-06-06T23:18:55.115Z,74.80
2018-06-06T23:21:23.372Z,75.10
2018-06-06T23:23:51.574Z,75.40
2018-06-06T23:26:19.739Z,75.60
2018-06-06T23:28:48.241Z,75.70
2018-06-06T23:31:16.571Z,75.70
2018-06-06T23:33:44.811Z,75.80
2018-06-06T23:36:13.057Z,76.00
2018-06-06T23:38:41.236Z,76.30
2018-06-06T23:41:09.415Z,76.70
2018-06-06T23:43:37.635Z,77.30
2018-06-06T23:46:05.818Z,77.90
2018-06-06T23:48:34.040Z,78.10
2018-06-06T23:51:02.227Z,78.10
2018-06-06T23:53:30.455Z,78.30
2018-06-06T23:55:58.643Z,79.40
2018-06-06T23:58:27.092Z,78.80
